CW3590 Weather Reports


Display with metric or nautical units.
time (UTC)temp
F
wind
direction
speed
MPH
gust
MPH
rain 1hr
in
rain 24hr
in
rain mn
in
humidity
%
barometer
mb
20240220223009 78 175 5.0 11.0 0.00 0.00 0.00 39 1019.0
20240220222009 78 181 3.0 8.0 0.00 0.00 0.00 38 1019.0
20240220221010 79 193 4.0 7.0 0.00 0.00 0.00 39 1018.9
20240220220009 78 191 4.0 9.0 0.00 0.00 0.00 36 1019.0
20240220212008 78 181 4.0 11.0 0.00 0.00 0.00 39 1019.2
20240220211008 78 195 4.0 10.0 0.00 0.00 0.00 39 1019.2
20240220210011 78 204 4.0 9.0 0.00 0.00 0.00 39 1019.3
20240220204009 78 204 4.0 9.0 0.00 0.00 0.00 39 1019.6
20240220203009 78 212 4.0 12.0 0.00 0.00 0.00 39 1019.8
20240220202009 78 198 4.0 15.0 0.00 0.00 0.00 38 1019.9
20240220201009 77 187 4.0 10.0 0.00 0.00 0.00 39 1020.0
20240220195008 76 179 4.0 7.0 0.00 0.00 0.00 39 1020.3
20240220194008 76 161 5.0 9.0 0.00 0.00 0.00 43 1020.5
20240220193009 76 178 4.0 10.0 0.00 0.00 0.00 42 1020.8
20240220191008 74 182 3.0 8.0 0.00 0.00 0.00 45 1021.1
20240220190009 74 146 3.0 8.0 0.00 0.00 0.00 47 1021.3
20240220184009 73 133 3.0 4.0 0.00 0.00 0.00 51 1021.6
20240220183009 73 174 3.0 6.0 0.00 0.00 0.00 52 1021.9
20240220182008 72 134 2.0 5.0 0.00 0.00 0.00 51 1021.9
20240220180008 69 196 2.0 4.0 0.00 0.00 0.00 54 1022.3
20240220173009 67 251 2.0 3.0 0.00 0.00 0.00 58 1022.8
20240220172009 67 253 2.0 5.0 0.00 0.00 0.00 61 1023.0
20240220163008 60 153 2.0 4.0 0.00 0.00 0.00 73 1022.9
20240220162008 59 197 2.0 4.0 0.00 0.00 0.00 76 1023.0
20240220161008 56 196 2.0 5.0 0.00 0.00 0.00 81 1023.0
20240220155009 54 248 2.0 6.0 0.00 0.00 0.00 87 1023.1
20240220154009 53 208 2.0 7.0 0.00 0.00 0.00 89 1023.3
20240220153009 52 208 3.0 6.0 0.00 0.00 0.00 92 1023.3
20240220151008 50 233 2.0 6.0 0.00 0.00 0.00 94 1023.1
20240220150008 49 214 2.0 5.0 0.00 0.00 0.00 94 1023.1
20240220145008 48 217 2.0 5.0 0.00 0.00 0.00 94 1023.0
20240220144008 46 187 1.0 4.0 0.00 0.00 0.00 93 1022.9
20240220141008 42 181 1.0 2.0 0.00 0.00 0.00 90 1022.5
20240220140009 41 181 1.0 2.0 0.00 0.00 0.00 89 1022.5
20240220135008 41 181 0.0 2.0 0.00 0.00 0.00 89 1022.3
20240220134008 41 0 0.0 2.0 0.00 0.00 0.00 88 1022.1
20240220133008 41 0 0.0 0.0 0.00 0.00 0.00 88 1022.0
20240220130009 41 0 0.0 0.0 0.00 0.00 0.00 87 1021.6
20240220125008 41 0 0.0 0.0 0.00 0.00 0.00 87 1021.6
20240220124008 41 181 1.0 2.0 0.00 0.00 0.00 87 1021.4
20240220123008 42 0 0.0 1.0 0.00 0.00 0.00 87 1021.2
20240220122008 42 0 0.0 1.0 0.00 0.00 0.00 87 1021.1
20240220121008 42 181 1.0 2.0 0.00 0.00 0.00 87 1021.0
20240220120008 42 181 1.0 2.0 0.00 0.00 0.00 87 1021.0
20240220115008 43 181 1.0 3.0 0.00 0.00 0.00 88 1020.7
20240220114008 43 181 1.0 2.0 0.00 0.00 0.00 88 1020.7
20240220113008 43 182 1.0 3.0 0.00 0.00 0.00 88 1020.6
20240220111008 43 187 2.0 3.0 0.00 0.00 0.00 86 1020.4
20240220110008 43 187 1.0 2.0 0.00 0.00 0.00 86 1020.5
20240220105008 44 187 1.0 2.0 0.00 0.00 0.00 86 1020.4
20240220103008 44 181 1.0 3.0 0.00 0.00 0.00 87 1020.3
20240220100007 45 179 1.0 3.0 0.00 0.00 0.00 86 1020.2
20240220095009 45 176 2.0 3.0 0.00 0.00 0.00 84 1020.1
20240220094008 45 183 1.0 3.0 0.00 0.00 0.00 82 1020.2
20240220092008 46 184 1.0 3.0 0.00 0.00 0.00 82 1020.1
20240220091008 46 181 1.0 3.0 0.00 0.00 0.00 83 1020.2
20240220085008 46 194 2.0 3.0 0.00 0.00 0.00 83 1020.2
20240220083007 46 181 2.0 3.0 0.00 0.00 0.00 82 1020.3
20240220082008 46 184 1.0 4.0 0.00 0.00 0.00 81 1020.3
20240220081008 46 187 1.0 3.0 0.00 0.00 0.00 81 1020.3
20240220080007 46 182 1.0 3.0 0.00 0.00 0.00 81 1020.3
20240220075009 46 179 1.0 3.0 0.00 0.00 0.00 81 1020.4
20240220074008 45 182 1.0 5.0 0.00 0.00 0.00 81 1020.3
20240220073007 45 187 1.0 3.0 0.00 0.00 0.00 80 1020.3
20240220071008 45 191 1.0 3.0 0.00 0.00 0.00 79 1020.3
20240220070008 45 198 1.0 4.0 0.00 0.00 0.00 80 1020.3
20240220064008 45 211 1.0 2.0 0.00 0.00 0.00 78 1020.1
20240220063007 45 211 1.0 2.0 0.00 0.00 0.00 76 1020.1
20240220062008 45 212 1.0 2.0 0.00 0.00 0.00 76 1020.0
20240220061008 46 211 1.0 3.0 0.00 0.00 0.00 74 1020.0
20240220060010 48 179 2.0 4.0 0.00 0.00 0.00 73 1020.0
20240220055008 47 176 2.0 3.0 0.00 0.00 0.00 71 1020.0
20240220054007 48 177 1.0 3.0 0.00 0.00 0.00 71 1019.9
20240220053008 47 177 1.0 3.0 0.00 0.00 0.00 71 1019.8
20240220052008 46 176 0.0 2.0 0.00 0.00 0.00 71 1019.9
20240220051007 48 176 1.0 2.0 0.00 0.00 0.00 69 1019.9
20240220045007 49 176 1.0 2.0 0.00 0.00 0.00 66 1019.9
20240220043008 49 177 1.0 2.0 0.00 0.00 0.00 67 1020.1
20240220042007 49 177 1.0 2.0 0.00 0.00 0.00 67 1020.2
20240220041007 49 0 0.0 1.0 0.00 0.00 0.00 67 1020.2
20240220035007 50 178 1.0 2.0 0.00 0.00 0.00 65 1019.9
20240220033008 52 179 1.0 3.0 0.00 0.00 0.00 61 1019.8
20240220032008 50 181 1.0 2.0 0.00 0.00 0.00 63 1019.7
20240220031008 50 181 1.0 2.0 0.00 0.00 0.00 62 1019.8
20240220030007 51 181 1.0 2.0 0.00 0.00 0.00 62 1019.8
20240220024008 50 181 0.0 2.0 0.00 0.00 0.00 61 1019.7
20240220023009 50 0 0.0 0.0 0.00 0.00 0.00 63 1019.7
20240220022008 51 0 0.0 0.0 0.00 0.00 0.00 62 1019.7
20240220021007 51 0 0.0 0.0 0.00 0.00 0.00 61 1019.8
20240220020008 51 0 0.0 0.0 0.00 0.00 0.00 59 1019.6
20240220015008 52 0 0.0 0.0 0.00 0.00 0.00 58 1019.4
20240220013007 54 0 0.0 0.0 0.00 0.00 0.00 56 1019.2
20240220012007 54 181 1.0 1.0 0.00 0.00 0.00 53 1019.0
20240220011008 55 182 1.0 3.0 0.00 0.00 0.00 51 1018.9
20240220010007 57 168 2.0 4.0 0.00 0.00 0.00 49 1018.7
20240220005007 57 186 2.0 4.0 0.00 0.00 0.00 48 1018.5
20240220004007 58 189 1.0 4.0 0.00 0.00 0.00 47 1018.5
20240220003008 58 196 2.0 5.0 0.00 0.00 0.00 46 1018.5
20240220002008 59 199 2.0 4.0 0.00 0.00 0.00 45 1018.4
20240220001007 59 177 2.0 5.0 0.00 0.00 0.00 44 1018.5
20240220000007 60 187 2.0 6.0 0.00 0.00 0.00 43 1018.3
20240219235007 60 188 3.0 7.0 0.00 0.00 0.00 42 1018.2
20240219233007 61 178 3.0 9.0 0.00 0.00 0.00 40 1018.0
20240219232008 62 175 4.0 6.0 0.00 0.00 0.00 39 1017.9
20240219231008 62 177 3.0 8.0 0.00 0.00 0.00 39 1017.9
20240219230007 63 210 4.0 6.0 0.00 0.00 0.00 38 1018.0
20240219224007 64 206 3.0 7.0 0.00 0.00 0.00 37 1017.7